createdAt,value
2019-03-16T00:02:12.307Z,5.53
2019-03-16T00:04:41.008Z,5.33
2019-03-16T00:07:09.756Z,5.13
2019-03-16T00:09:38.452Z,5.87
2019-03-16T00:12:07.163Z,7.00
2019-03-16T00:14:35.877Z,7.33
2019-03-16T00:17:04.582Z,7.30
2019-03-16T00:19:33.332Z,5.20
2019-03-16T00:22:02.040Z,5.80
2019-03-16T00:24:30.742Z,6.37
2019-03-16T00:26:59.497Z,6.50
2019-03-16T00:29:28.150Z,9.27
2019-03-16T00:31:56.899Z,7.87
2019-03-16T00:34:25.605Z,5.90
2019-03-16T00:36:54.313Z,5.53
2019-03-16T00:39:23.076Z,5.13
2019-03-16T00:41:51.776Z,4.90
2019-03-16T00:44:20.475Z,5.30
2019-03-16T00:46:49.208Z,4.80
2019-03-16T00:49:17.914Z,5.43
2019-03-16T00:51:48.327Z,5.30
2019-03-16T00:54:17.035Z,4.60
2019-03-16T00:56:45.741Z,4.60
2019-03-16T00:59:14.452Z,4.13
2019-03-16T01:01:43.154Z,3.40
2019-03-16T01:04:11.955Z,3.30
2019-03-16T01:06:40.647Z,2.87
2019-03-16T01:09:09.354Z,3.17
2019-03-16T01:11:38.126Z,3.40
2019-03-16T01:14:06.852Z,3.10
2019-03-16T01:16:35.557Z,3.17
2019-03-16T01:19:04.279Z,2.87
2019-03-16T01:21:33.191Z,2.77
2019-03-16T01:24:01.938Z,3.07
2019-03-16T01:26:30.653Z,3.30
2019-03-16T01:28:59.360Z,3.20
2019-03-16T01:31:28.067Z,3.23
2019-03-16T01:33:56.776Z,3.20
2019-03-16T01:36:25.520Z,3.20
2019-03-16T01:38:54.219Z,3.00
2019-03-16T01:41:22.920Z,3.10
2019-03-16T01:43:51.641Z,2.57
2019-03-16T01:46:20.351Z,3.53
2019-03-16T01:48:51.681Z,3.03
2019-03-16T01:51:20.388Z,3.00
2019-03-16T01:53:49.091Z,3.13
2019-03-16T01:56:17.800Z,3.03
2019-03-16T01:58:46.511Z,2.90
2019-03-16T02:01:15.253Z,3.37
2019-03-16T02:03:43.954Z,3.10
2019-03-16T02:06:12.646Z,3.20
2019-03-16T02:08:41.353Z,3.40
2019-03-16T02:11:10.053Z,3.33
2019-03-16T02:13:38.796Z,3.20
2019-03-16T02:16:11.204Z,3.20
2019-03-16T02:18:37.918Z,3.17
2019-03-16T02:21:06.623Z,2.83
2019-03-16T02:23:35.333Z,2.90
2019-03-16T02:26:04.065Z,3.07
2019-03-16T02:28:32.767Z,2.90
2019-03-16T02:31:01.476Z,3.00
2019-03-16T02:33:30.210Z,3.00
2019-03-16T02:35:58.886Z,2.83
2019-03-16T02:38:27.642Z,2.80
2019-03-16T02:40:56.367Z,6.77
2019-03-16T02:43:25.071Z,3.63
2019-03-16T02:45:53.774Z,2.63
2019-03-16T02:48:22.505Z,2.47
2019-03-16T02:50:51.232Z,2.40
2019-03-16T02:53:19.949Z,2.53
2019-03-16T02:55:48.657Z,2.50
2019-03-16T02:58:17.363Z,2.30
2019-03-16T03:00:46.062Z,2.20
2019-03-16T03:03:28.608Z,2.17
2019-03-16T03:05:45.233Z,2.27
2019-03-16T03:08:13.927Z,2.20
2019-03-16T03:10:42.631Z,1.93
2019-03-16T03:13:13.525Z,2.20
2019-03-16T03:15:41.807Z,2.13
2019-03-16T03:18:10.510Z,2.10
2019-03-16T03:20:39.217Z,2.50
2019-03-16T03:23:07.939Z,2.60
2019-03-16T03:25:36.625Z,2.30
2019-03-16T03:28:05.391Z,2.20
2019-03-16T03:30:34.133Z,2.10
2019-03-16T03:33:02.873Z,2.23
2019-03-16T03:35:31.573Z,2.10
2019-03-16T03:38:00.389Z,1.93
2019-03-16T03:40:29.095Z,2.00
2019-03-16T03:42:57.798Z,2.10
2019-03-16T03:45:26.497Z,2.10
2019-03-16T03:47:55.207Z,1.73
2019-03-16T03:50:23.910Z,1.90
2019-03-16T03:52:52.663Z,1.60
2019-03-16T03:55:21.463Z,3.07
2019-03-16T03:57:50.266Z,3.67
2019-03-16T04:00:19.282Z,3.50
2019-03-16T04:02:50.835Z,5.93
2019-03-16T04:05:19.598Z,5.80
2019-03-16T04:07:48.308Z,3.93
2019-03-16T04:10:17.015Z,11.73
2019-03-16T04:12:48.514Z,5.00
2019-03-16T04:15:17.241Z,4.43
2019-03-16T04:17:48.491Z,4.60
2019-03-16T04:20:17.190Z,3.07
2019-03-16T04:22:45.892Z,2.70
2019-03-16T04:25:14.602Z,3.93
2019-03-16T04:27:43.305Z,7.97
2019-03-16T04:30:13.033Z,21.00
2019-03-16T04:32:41.741Z,19.43
2019-03-16T04:35:10.551Z,11.10
2019-03-16T04:37:39.290Z,5.30
2019-03-16T04:40:10.113Z,11.30
2019-03-16T04:42:38.819Z,19.53
2019-03-16T04:45:09.752Z,21.17
2019-03-16T04:47:38.458Z,22.93
2019-03-16T04:50:09.586Z,9.30
2019-03-16T04:52:38.301Z,8.27
2019-03-16T04:55:08.608Z,11.53
2019-03-16T04:57:37.319Z,10.83
2019-03-16T05:00:11.249Z,12.50
2019-03-16T05:02:39.991Z,8.20
2019-03-16T05:05:08.804Z,7.00
2019-03-16T05:07:37.499Z,16.60
2019-03-16T05:10:08.994Z,32.70
2019-03-16T05:12:37.719Z,25.73
2019-03-16T05:15:08.158Z,18.23
2019-03-16T05:17:36.864Z,12.73
2019-03-16T05:20:08.826Z,32.37
2019-03-16T05:22:37.544Z,20.57
2019-03-16T05:25:08.861Z,24.37
2019-03-16T05:27:37.691Z,21.77
2019-03-16T05:30:09.304Z,9.83
2019-03-16T05:32:38.018Z,11.10
2019-03-16T05:35:07.767Z,28.23
2019-03-16T05:37:36.480Z,15.97
2019-03-16T05:40:09.987Z,19.90
2019-03-16T05:42:38.725Z,12.37
2019-03-16T05:45:09.197Z,11.00
2019-03-16T05:47:38.406Z,19.07
2019-03-16T05:50:10.043Z,25.40
2019-03-16T05:52:38.747Z,31.23
2019-03-16T05:55:07.604Z,66.10
2019-03-16T05:57:36.315Z,35.40
2019-03-16T06:00:10.553Z,23.40
2019-03-16T06:02:39.273Z,20.57
2019-03-16T06:05:11.105Z,12.43
2019-03-16T06:07:38.458Z,16.77
2019-03-16T06:10:09.470Z,9.63
2019-03-16T06:12:38.253Z,20.17
2019-03-16T06:15:09.370Z,7.50
2019-03-16T06:17:38.076Z,7.80
2019-03-16T06:20:11.791Z,29.17
2019-03-16T06:22:40.504Z,12.33
2019-03-16T06:25:09.723Z,43.87
2019-03-16T06:27:38.483Z,14.30
2019-03-16T06:30:15.290Z,27.33
2019-03-16T06:32:44.172Z,13.90
2019-03-16T06:35:24.098Z,15.20
2019-03-16T06:37:43.418Z,17.23
2019-03-16T06:40:12.444Z,13.10
2019-03-16T06:42:41.151Z,11.97
2019-03-16T06:45:11.516Z,33.80
2019-03-16T06:47:40.222Z,13.43
2019-03-16T06:50:14.030Z,7.10
2019-03-16T06:52:42.753Z,7.50
2019-03-16T06:55:11.976Z,28.87
2019-03-16T06:57:40.820Z,44.93
2019-03-16T07:00:15.187Z,7.60
2019-03-16T07:02:43.889Z,7.30
2019-03-16T07:05:13.309Z,13.63
2019-03-16T07:07:42.043Z,10.63
2019-03-16T07:10:14.352Z,11.87
2019-03-16T07:12:43.105Z,12.30
2019-03-16T07:15:14.061Z,7.70
2019-03-16T07:17:42.806Z,8.40
2019-03-16T07:20:12.942Z,27.30
2019-03-16T07:22:41.634Z,10.70
2019-03-16T07:25:10.564Z,10.47
2019-03-16T07:27:39.279Z,10.67
2019-03-16T07:30:10.940Z,9.63
2019-03-16T07:32:39.729Z,10.37
2019-03-16T07:35:08.658Z,27.10
2019-03-16T07:37:37.375Z,18.53
2019-03-16T07:40:08.534Z,14.10
2019-03-16T07:42:37.300Z,16.83
2019-03-16T07:45:08.998Z,13.83
2019-03-16T07:47:37.948Z,7.97
2019-03-16T07:50:09.215Z,13.63
2019-03-16T07:52:37.936Z,9.93
2019-03-16T07:55:07.608Z,11.67
2019-03-16T07:57:40.459Z,12.10
2019-03-16T08:00:09.759Z,6.33
2019-03-16T08:02:38.478Z,10.77
2019-03-16T08:05:17.232Z,6.17
2019-03-16T08:07:37.773Z,10.07
2019-03-16T08:10:09.094Z,15.27
2019-03-16T08:12:37.808Z,7.73
2019-03-16T08:15:08.449Z,21.87
2019-03-16T08:17:37.161Z,11.90
2019-03-16T08:20:10.002Z,16.27
2019-03-16T08:22:38.717Z,13.57
2019-03-16T08:25:08.332Z,5.77
2019-03-16T08:27:37.086Z,6.57
2019-03-16T08:30:10.819Z,7.63
2019-03-16T08:32:39.530Z,5.93
2019-03-16T08:35:09.253Z,5.70
2019-03-16T08:37:37.972Z,5.20
2019-03-16T08:40:09.223Z,4.57
2019-03-16T08:42:37.931Z,9.23
2019-03-16T08:45:08.643Z,10.93
2019-03-16T08:47:37.408Z,7.40
2019-03-16T08:50:07.625Z,7.67
2019-03-16T08:52:36.338Z,8.60
2019-03-16T08:55:06.083Z,5.87
2019-03-16T08:57:34.796Z,3.40
2019-03-16T09:00:04.010Z,3.03
2019-03-16T09:02:32.769Z,6.07
2019-03-16T09:05:01.471Z,2.73
2019-03-16T09:07:30.176Z,2.97
2019-03-16T09:09:58.899Z,2.33
2019-03-16T09:12:28.649Z,4.03
2019-03-16T09:14:57.400Z,3.30
2019-03-16T09:17:26.113Z,4.50
2019-03-16T09:19:54.826Z,4.63
2019-03-16T09:22:23.575Z,2.90
2019-03-16T09:24:52.293Z,3.10
2019-03-16T09:27:30.576Z,2.80
2019-03-16T09:29:51.448Z,3.07
2019-03-16T09:32:20.154Z,3.27
2019-03-16T09:34:49.394Z,4.00
2019-03-16T09:37:18.098Z,3.00
2019-03-16T09:39:46.808Z,3.20
2019-03-16T09:42:15.553Z,2.47
2019-03-16T09:44:44.270Z,2.37
2019-03-16T09:47:12.987Z,2.80
2019-03-16T09:49:41.694Z,3.70
2019-03-16T09:52:10.401Z,2.90
2019-03-16T09:54:39.148Z,3.17
2019-03-16T09:57:07.850Z,4.67
2019-03-16T09:59:36.552Z,3.30
2019-03-16T10:02:05.405Z,2.53
2019-03-16T10:04:34.114Z,3.17
2019-03-16T10:07:02.864Z,3.43
2019-03-16T10:09:31.565Z,2.53
2019-03-16T10:12:00.272Z,6.53
2019-03-16T10:14:29.059Z,6.70
2019-03-16T10:16:57.774Z,6.47
2019-03-16T10:19:26.485Z,5.13
2019-03-16T10:21:55.199Z,2.30
2019-03-16T10:24:23.898Z,3.57
2019-03-16T10:26:52.651Z,16.37
2019-03-16T10:29:21.361Z,4.07
2019-03-16T10:31:50.069Z,7.27
2019-03-16T10:34:18.788Z,4.80
2019-03-16T10:36:47.503Z,11.97
2019-03-16T10:39:16.243Z,4.77
2019-03-16T10:41:44.952Z,7.47
2019-03-16T10:44:13.654Z,6.23
2019-03-16T10:46:42.377Z,6.27
2019-03-16T10:49:11.081Z,2.83
2019-03-16T10:51:39.860Z,3.27
2019-03-16T10:54:08.571Z,3.83
2019-03-16T10:56:37.271Z,4.10
2019-03-16T10:59:06.016Z,3.00
2019-03-16T11:01:34.720Z,2.80
2019-03-16T11:04:03.430Z,2.60
2019-03-16T11:06:32.195Z,2.27
2019-03-16T11:09:00.908Z,3.80
2019-03-16T11:11:29.644Z,2.60
2019-03-16T11:13:58.355Z,2.70
2019-03-16T11:16:27.059Z,4.97
2019-03-16T11:18:55.778Z,5.53
2019-03-16T11:21:24.477Z,5.23
2019-03-16T11:23:53.195Z,6.17
2019-03-16T11:26:21.905Z,6.93
2019-03-16T11:28:50.615Z,3.80
2019-03-16T11:31:19.322Z,1.50
2019-03-16T11:33:49.488Z,5.73
2019-03-16T11:36:18.192Z,3.90
2019-03-16T11:38:50.289Z,3.80
2019-03-16T11:41:19.044Z,5.37
2019-03-16T11:43:47.760Z,6.90
2019-03-16T11:46:16.467Z,2.70
2019-03-16T11:48:45.225Z,2.33
2019-03-16T11:51:13.928Z,1.50
2019-03-16T11:53:42.644Z,3.07
2019-03-16T11:56:18.091Z,1.80
2019-03-16T11:58:41.819Z,1.90
2019-03-16T12:01:10.527Z,2.57
2019-03-16T12:03:39.282Z,4.63
2019-03-16T12:06:07.980Z,5.23
2019-03-16T12:08:39.505Z,3.50
2019-03-16T12:11:07.132Z,3.60
2019-03-16T12:13:35.837Z,4.50
2019-03-16T12:16:04.603Z,7.33
2019-03-16T12:18:33.314Z,5.90
2019-03-16T12:21:02.034Z,6.20
2019-03-16T12:23:30.788Z,7.73
2019-03-16T12:25:59.508Z,12.03
2019-03-16T12:28:28.218Z,11.00
2019-03-16T12:30:56.933Z,5.77
2019-03-16T12:33:25.645Z,11.23
2019-03-16T12:35:54.401Z,6.83
2019-03-16T12:38:23.117Z,5.90
2019-03-16T12:40:51.832Z,4.90
2019-03-16T12:43:20.596Z,4.10
2019-03-16T12:45:49.443Z,5.10
2019-03-16T12:48:18.138Z,4.33
2019-03-16T12:50:48.805Z,6.13
2019-03-16T12:53:17.515Z,10.80
2019-03-16T12:55:49.552Z,6.07
2019-03-16T12:58:18.261Z,16.13
2019-03-16T13:00:46.974Z,22.97
2019-03-16T13:03:15.751Z,24.97
2019-03-16T13:05:44.531Z,23.93
2019-03-16T13:08:13.256Z,11.83
2019-03-16T13:10:42.015Z,11.80
2019-03-16T13:13:10.725Z,15.43
2019-03-16T13:15:39.431Z,1.80
2019-03-16T13:18:08.151Z,5.80
2019-03-16T13:20:36.864Z,7.43
2019-03-16T13:23:05.639Z,11.47
2019-03-16T13:25:34.363Z,9.73
2019-03-16T13:28:03.076Z,5.80
2019-03-16T13:30:31.839Z,2.40
2019-03-16T13:33:00.551Z,3.10
2019-03-16T13:35:29.384Z,3.30
2019-03-16T13:37:58.090Z,2.13
2019-03-16T13:40:26.807Z,2.73
2019-03-16T13:42:55.551Z,3.47
2019-03-16T13:45:24.251Z,4.10
2019-03-16T13:47:52.964Z,6.33
2019-03-16T13:50:22.019Z,9.60
2019-03-16T13:52:51.018Z,9.60
2019-03-16T13:55:19.724Z,7.53
2019-03-16T13:57:48.853Z,6.80
2019-03-16T14:00:18.947Z,9.53
2019-03-16T14:02:49.598Z,6.67
2019-03-16T14:05:18.311Z,7.73
2019-03-16T14:07:47.010Z,5.40
2019-03-16T14:10:20.389Z,3.37
2019-03-16T14:12:49.108Z,6.33
2019-03-16T14:15:17.832Z,11.33
2019-03-16T14:17:48.881Z,11.60
2019-03-16T14:20:18.069Z,7.33
2019-03-16T14:22:49.016Z,10.97
2019-03-16T14:25:17.727Z,9.63
2019-03-16T14:27:46.444Z,7.07
2019-03-16T14:30:39.477Z,27.50
2019-03-16T14:32:50.085Z,18.73
2019-03-16T14:35:18.836Z,17.70
2019-03-16T14:37:47.551Z,13.87
2019-03-16T14:40:16.519Z,10.83
2019-03-16T14:42:45.316Z,12.20
2019-03-16T14:45:15.204Z,7.43
2019-03-16T14:47:44.029Z,6.40
2019-03-16T14:50:20.853Z,11.47
2019-03-16T14:52:49.572Z,9.50
2019-03-16T14:55:18.409Z,8.43
2019-03-16T14:57:47.129Z,8.90
2019-03-16T15:00:17.147Z,7.93
2019-03-16T15:02:46.801Z,5.27
2019-03-16T15:05:15.905Z,9.37
2019-03-16T15:07:44.653Z,9.03
2019-03-16T15:10:17.456Z,11.00
2019-03-16T15:12:46.171Z,9.17
2019-03-16T15:15:18.806Z,5.00
2019-03-16T15:17:47.516Z,3.97
2019-03-16T15:20:16.220Z,4.03
2019-03-16T15:22:44.978Z,6.33
2019-03-16T15:25:14.586Z,7.37
2019-03-16T15:27:43.304Z,8.27
2019-03-16T15:30:20.366Z,20.63
2019-03-16T15:32:49.074Z,5.97
2019-03-16T15:35:17.826Z,12.37
2019-03-16T15:37:46.558Z,34.07
2019-03-16T15:40:16.072Z,49.13
2019-03-16T15:42:44.787Z,42.73
2019-03-16T15:45:16.164Z,26.27
2019-03-16T15:47:44.925Z,17.30
2019-03-16T15:50:13.634Z,31.43
2019-03-16T15:52:42.365Z,33.97
2019-03-16T15:55:11.276Z,30.73
2019-03-16T15:57:42.542Z,23.43
2019-03-16T16:00:15.585Z,27.87
2019-03-16T16:02:44.309Z,15.07
2019-03-16T16:05:13.427Z,14.20
2019-03-16T16:07:42.169Z,31.23
2019-03-16T16:10:15.741Z,16.93
2019-03-16T16:12:44.491Z,26.17
2019-03-16T16:15:13.612Z,16.23
2019-03-16T16:17:42.417Z,9.80
2019-03-16T16:20:12.569Z,9.00
2019-03-16T16:22:41.279Z,14.37
2019-03-16T16:25:11.961Z,14.47
2019-03-16T16:27:40.680Z,14.80
2019-03-16T16:30:16.450Z,9.10
2019-03-16T16:32:45.221Z,9.73
2019-03-16T16:35:15.035Z,9.23
2019-03-16T16:37:43.748Z,12.17
2019-03-16T16:40:14.725Z,60.40
2019-03-16T16:42:43.435Z,32.07
2019-03-16T16:45:14.345Z,68.43
2019-03-16T16:47:43.076Z,68.87
2019-03-16T16:50:19.962Z,54.70
2019-03-16T16:52:49.077Z,64.83
2019-03-16T16:55:17.795Z,43.50
2019-03-16T16:57:46.503Z,19.33
2019-03-16T17:00:19.488Z,18.10
2019-03-16T17:02:48.254Z,26.83
2019-03-16T17:05:17.069Z,19.27
2019-03-16T17:07:45.789Z,16.07
2019-03-16T17:10:17.821Z,10.43
2019-03-16T17:12:49.146Z,182.57
2019-03-16T17:15:21.969Z,152.60
2019-03-16T17:17:50.734Z,87.73
2019-03-16T17:20:19.549Z,48.27
2019-03-16T17:22:48.265Z,26.10
2019-03-16T17:25:17.242Z,11.80
2019-03-16T17:27:45.960Z,12.10
2019-03-16T17:30:22.574Z,7.90
2019-03-16T17:32:51.345Z,19.70
2019-03-16T17:35:20.060Z,14.67
2019-03-16T17:37:50.544Z,7.17
2019-03-16T17:40:19.261Z,7.30
2019-03-16T17:42:47.951Z,5.00
2019-03-16T17:45:16.678Z,7.97
2019-03-16T17:47:45.393Z,7.07
2019-03-16T17:50:15.248Z,4.60
2019-03-16T17:52:43.920Z,5.30
2019-03-16T17:55:17.023Z,5.43
2019-03-16T17:57:45.960Z,6.37
2019-03-16T18:00:18.464Z,13.50
2019-03-16T18:02:52.654Z,12.47
2019-03-16T18:05:19.114Z,17.57
2019-03-16T18:07:47.830Z,9.50
2019-03-16T18:10:16.788Z,6.20
2019-03-16T18:12:45.496Z,5.37
2019-03-16T18:15:18.305Z,9.93
2019-03-16T18:17:49.886Z,10.33
2019-03-16T18:20:19.199Z,7.37
2019-03-16T18:22:49.359Z,6.27
2019-03-16T18:25:18.316Z,9.17
2019-03-16T18:27:47.035Z,19.37
2019-03-16T18:30:21.588Z,19.20
2019-03-16T18:32:50.300Z,19.17
2019-03-16T18:35:19.019Z,14.47
2019-03-16T18:37:47.776Z,12.00
2019-03-16T18:40:16.889Z,15.97
2019-03-16T18:42:45.604Z,43.73
2019-03-16T18:45:16.222Z,18.23
2019-03-16T18:47:44.979Z,11.17
2019-03-16T18:50:13.887Z,30.53
2019-03-16T18:52:42.636Z,24.87
2019-03-16T18:55:12.994Z,30.40
2019-03-16T18:57:43.557Z,28.47
2019-03-16T19:00:15.044Z,19.27
2019-03-16T19:02:43.833Z,13.40
2019-03-16T19:05:12.581Z,14.20
2019-03-16T19:07:41.300Z,17.37
2019-03-16T19:10:12.922Z,12.43
2019-03-16T19:12:41.649Z,12.33
2019-03-16T19:15:15.276Z,10.00
2019-03-16T19:17:43.995Z,16.03
2019-03-16T19:20:17.351Z,15.83
2019-03-16T19:22:51.385Z,18.30
2019-03-16T19:25:23.735Z,13.80
2019-03-16T19:27:52.465Z,10.10
2019-03-16T19:30:21.354Z,8.93
2019-03-16T19:32:50.140Z,9.30
2019-03-16T19:35:18.860Z,7.17
2019-03-16T19:37:47.569Z,5.50
2019-03-16T19:40:18.319Z,5.97
2019-03-16T19:42:47.446Z,7.27
2019-03-16T19:45:16.249Z,5.80
2019-03-16T19:47:44.952Z,5.00
2019-03-16T19:50:15.018Z,4.60
2019-03-16T19:52:43.718Z,5.13
2019-03-16T19:55:13.456Z,4.93
2019-03-16T19:57:42.170Z,4.60
2019-03-16T20:00:15.262Z,4.00
2019-03-16T20:02:50.257Z,4.33
2019-03-16T20:05:14.963Z,4.40
2019-03-16T20:07:43.700Z,5.27
2019-03-16T20:10:17.197Z,8.27
2019-03-16T20:12:45.952Z,6.53
2019-03-16T20:15:15.710Z,6.10
2019-03-16T20:17:44.421Z,6.20
2019-03-16T20:20:14.436Z,5.20
2019-03-16T20:22:43.197Z,5.80
2019-03-16T20:25:12.589Z,5.17
2019-03-16T20:27:41.302Z,4.70
2019-03-16T20:30:25.784Z,5.13
2019-03-16T20:33:02.655Z,5.70
2019-03-16T20:35:20.657Z,4.87
2019-03-16T20:37:49.967Z,4.63
2019-03-16T20:40:18.678Z,4.30
2019-03-16T20:42:49.961Z,5.37
2019-03-16T20:45:18.865Z,5.00
2019-03-16T20:47:47.551Z,4.63
2019-03-16T20:50:17.694Z,4.40
2019-03-16T20:52:46.413Z,5.67
2019-03-16T20:55:15.120Z,6.27
2019-03-16T20:57:43.839Z,5.53
2019-03-16T21:00:15.466Z,5.63
2019-03-16T21:02:44.240Z,6.50
2019-03-16T21:05:13.055Z,17.03
2019-03-16T21:07:41.778Z,16.40
2019-03-16T21:10:12.470Z,8.83
2019-03-16T21:12:41.394Z,12.20
2019-03-16T21:15:14.916Z,10.10
2019-03-16T21:17:43.644Z,10.63
2019-03-16T21:20:17.178Z,8.20
2019-03-16T21:22:49.300Z,8.07
2019-03-16T21:25:18.301Z,6.70
2019-03-16T21:27:49.442Z,5.97
2019-03-16T21:30:22.489Z,5.40
2019-03-16T21:32:51.205Z,5.00
2019-03-16T21:35:20.056Z,5.30
2019-03-16T21:37:48.769Z,4.97
2019-03-16T21:40:17.482Z,5.13
2019-03-16T21:42:50.149Z,4.93
2019-03-16T21:45:18.849Z,4.83
2019-03-16T21:47:59.947Z,5.03
2019-03-16T21:50:21.415Z,5.57
2019-03-16T21:52:50.120Z,6.53
2019-03-16T21:55:19.000Z,5.90
2019-03-16T21:57:47.729Z,6.90
2019-03-16T22:00:19.497Z,6.17
2019-03-16T22:02:51.417Z,6.20
2019-03-16T22:05:20.227Z,6.97
2019-03-16T22:07:50.104Z,7.87
2019-03-16T22:10:18.852Z,6.90
2019-03-16T22:12:47.565Z,7.77
2019-03-16T22:15:17.792Z,7.73
2019-03-16T22:17:46.687Z,8.83
2019-03-16T22:20:19.372Z,7.50
2019-03-16T22:22:48.071Z,8.80
2019-03-16T22:25:16.784Z,8.23
2019-03-16T22:27:45.624Z,5.60
2019-03-16T22:30:15.524Z,5.93
2019-03-16T22:32:44.248Z,7.50
2019-03-16T22:35:12.998Z,5.43
2019-03-16T22:37:41.712Z,4.80
2019-03-16T22:40:14.329Z,4.10
2019-03-16T22:42:43.131Z,4.17
2019-03-16T22:45:15.288Z,4.30
2019-03-16T22:47:44.033Z,5.10
2019-03-16T22:50:15.029Z,6.00
2019-03-16T22:52:43.772Z,4.40
2019-03-16T22:55:15.486Z,5.37
2019-03-16T22:57:42.930Z,5.00
2019-03-16T23:00:20.649Z,5.10
2019-03-16T23:02:49.554Z,6.13
2019-03-16T23:05:18.274Z,6.10
2019-03-16T23:07:46.988Z,5.70
2019-03-16T23:10:15.694Z,4.30
2019-03-16T23:12:45.146Z,4.97
2019-03-16T23:15:13.852Z,4.70
2019-03-16T23:17:42.562Z,4.20
2019-03-16T23:20:11.606Z,3.77
2019-03-16T23:22:40.319Z,4.37
2019-03-16T23:25:10.826Z,4.60
2019-03-16T23:27:39.544Z,5.37
2019-03-16T23:30:09.846Z,4.00
2019-03-16T23:32:38.687Z,3.67
2019-03-16T23:35:09.069Z,3.53
2019-03-16T23:37:37.777Z,3.77
2019-03-16T23:40:11.094Z,3.70
2019-03-16T23:42:39.804Z,5.60
2019-03-16T23:45:10.877Z,3.47
2019-03-16T23:47:39.580Z,5.73
2019-03-16T23:50:10.289Z,4.43
2019-03-16T23:52:39.003Z,3.80
2019-03-16T23:55:09.313Z,3.97
2019-03-16T23:57:38.060Z,3.70
